sensor_id;sensor_type;location;lat;lon;timestamp;P1;durP1;ratioP1;P2;durP2;ratioP2
16115;SDS011;8162;47.104;15.432;2023-09-19T00:01:18;15.07;;;12.67;;
16115;SDS011;8162;47.104;15.432;2023-09-19T00:04:20;14.43;;;12.93;;
16115;SDS011;8162;47.104;15.432;2023-09-19T00:07:28;15.00;;;12.47;;
16115;SDS011;8162;47.104;15.432;2023-09-19T00:10:29;20.23;;;13.07;;
16115;SDS011;8162;47.104;15.432;2023-09-19T00:13:31;15.10;;;11.70;;
16115;SDS011;8162;47.104;15.432;2023-09-19T00:16:33;13.23;;;11.53;;
16115;SDS011;8162;47.104;15.432;2023-09-19T00:19:35;15.60;;;10.67;;
16115;SDS011;8162;47.104;15.432;2023-09-19T00:22:38;19.17;;;13.00;;
16115;SDS011;8162;47.104;15.432;2023-09-19T00:25:39;15.70;;;10.40;;
16115;SDS011;8162;47.104;15.432;2023-09-19T00:28:42;13.97;;;10.50;;
16115;SDS011;8162;47.104;15.432;2023-09-19T00:31:43;10.97;;;9.83;;
16115;SDS011;8162;47.104;15.432;2023-09-19T00:34:44;16.13;;;11.00;;
16115;SDS011;8162;47.104;15.432;2023-09-19T00:37:44;12.50;;;10.80;;
16115;SDS011;8162;47.104;15.432;2023-09-19T00:40:45;17.40;;;11.30;;
16115;SDS011;8162;47.104;15.432;2023-09-19T00:43:47;12.40;;;10.17;;
16115;SDS011;8162;47.104;15.432;2023-09-19T00:46:50;11.23;;;10.00;;
16115;SDS011;8162;47.104;15.432;2023-09-19T00:49:53;12.80;;;10.33;;
16115;SDS011;8162;47.104;15.432;2023-09-19T00:52:54;16.50;;;10.50;;
16115;SDS011;8162;47.104;15.432;2023-09-19T00:55:58;16.77;;;10.07;;
16115;SDS011;8162;47.104;15.432;2023-09-19T00:58:59;15.07;;;10.67;;
16115;SDS011;8162;47.104;15.432;2023-09-19T01:01:59;15.87;;;9.90;;
16115;SDS011;8162;47.104;15.432;2023-09-19T01:05:00;12.63;;;10.07;;
16115;SDS011;8162;47.104;15.432;2023-09-19T01:08:03;13.13;;;10.30;;
16115;SDS011;8162;47.104;15.432;2023-09-19T01:17:27;15.03;;;10.33;;
16115;SDS011;8162;47.104;15.432;2023-09-19T01:24:05;11.83;;;9.77;;
16115;SDS011;8162;47.104;15.432;2023-09-19T01:30:55;17.00;;;9.83;;
16115;SDS011;8162;47.104;15.432;2023-09-19T01:34:02;10.53;;;9.47;;
16115;SDS011;8162;47.104;15.432;2023-09-19T01:37:07;14.83;;;9.33;;
16115;SDS011;8162;47.104;15.432;2023-09-19T01:40:08;12.90;;;10.17;;
16115;SDS011;8162;47.104;15.432;2023-09-19T01:43:20;10.33;;;8.30;;
16115;SDS011;8162;47.104;15.432;2023-09-19T01:46:30;11.03;;;6.87;;
16115;SDS011;8162;47.104;15.432;2023-09-19T01:49:37;10.30;;;6.77;;
16115;SDS011;8162;47.104;15.432;2023-09-19T01:52:51;9.53;;;7.00;;
16115;SDS011;8162;47.104;15.432;2023-09-19T01:55:58;14.03;;;7.63;;
16115;SDS011;8162;47.104;15.432;2023-09-19T01:59:02;9.80;;;7.47;;
16115;SDS011;8162;47.104;15.432;2023-09-19T02:02:07;9.40;;;7.43;;
16115;SDS011;8162;47.104;15.432;2023-09-19T02:05:08;7.63;;;6.47;;
16115;SDS011;8162;47.104;15.432;2023-09-19T02:08:10;9.17;;;7.17;;
16115;SDS011;8162;47.104;15.432;2023-09-19T02:11:11;9.07;;;5.37;;
16115;SDS011;8162;47.104;15.432;2023-09-19T02:14:13;8.83;;;5.80;;
16115;SDS011;8162;47.104;15.432;2023-09-19T02:17:14;9.70;;;6.17;;
16115;SDS011;8162;47.104;15.432;2023-09-19T02:20:14;9.07;;;6.10;;
16115;SDS011;8162;47.104;15.432;2023-09-19T02:23:16;11.20;;;5.60;;
16115;SDS011;8162;47.104;15.432;2023-09-19T02:26:17;7.73;;;6.13;;
16115;SDS011;8162;47.104;15.432;2023-09-19T02:29:18;8.07;;;5.63;;
16115;SDS011;8162;47.104;15.432;2023-09-19T02:32:19;6.77;;;5.30;;
16115;SDS011;8162;47.104;15.432;2023-09-19T02:35:20;7.53;;;4.30;;
16115;SDS011;8162;47.104;15.432;2023-09-19T02:38:20;10.60;;;4.50;;
16115;SDS011;8162;47.104;15.432;2023-09-19T02:41:24;6.73;;;4.37;;
16115;SDS011;8162;47.104;15.432;2023-09-19T02:44:25;4.97;;;4.27;;
16115;SDS011;8162;47.104;15.432;2023-09-19T02:47:27;4.20;;;3.30;;
16115;SDS011;8162;47.104;15.432;2023-09-19T02:50:28;7.03;;;3.67;;
16115;SDS011;8162;47.104;15.432;2023-09-19T02:53:29;3.30;;;3.00;;
16115;SDS011;8162;47.104;15.432;2023-09-19T02:56:31;5.13;;;2.90;;
16115;SDS011;8162;47.104;15.432;2023-09-19T02:59:32;3.30;;;2.87;;
16115;SDS011;8162;47.104;15.432;2023-09-19T03:02:33;3.70;;;3.30;;
16115;SDS011;8162;47.104;15.432;2023-09-19T03:05:34;4.37;;;3.60;;
16115;SDS011;8162;47.104;15.432;2023-09-19T03:08:35;2.77;;;2.50;;
16115;SDS011;8162;47.104;15.432;2023-09-19T03:11:39;3.13;;;2.40;;
16115;SDS011;8162;47.104;15.432;2023-09-19T03:14:42;1.70;;;1.60;;
16115;SDS011;8162;47.104;15.432;2023-09-19T03:17:43;2.20;;;1.63;;
16115;SDS011;8162;47.104;15.432;2023-09-19T03:20:52;3.13;;;1.63;;
16115;SDS011;8162;47.104;15.432;2023-09-19T03:23:56;1.90;;;1.40;;
16115;SDS011;8162;47.104;15.432;2023-09-19T03:26:57;2.73;;;1.80;;
16115;SDS011;8162;47.104;15.432;2023-09-19T03:29:57;1.20;;;1.10;;
16115;SDS011;8162;47.104;15.432;2023-09-19T03:32:58;1.63;;;1.53;;
16115;SDS011;8162;47.104;15.432;2023-09-19T03:35:59;3.67;;;1.60;;
16115;SDS011;8162;47.104;15.432;2023-09-19T03:39:01;1.53;;;1.07;;
16115;SDS011;8162;47.104;15.432;2023-09-19T03:42:06;2.60;;;1.40;;
16115;SDS011;8162;47.104;15.432;2023-09-19T03:45:10;3.87;;;1.60;;
16115;SDS011;8162;47.104;15.432;2023-09-19T03:48:12;2.53;;;1.57;;
16115;SDS011;8162;47.104;15.432;2023-09-19T03:51:13;1.90;;;1.73;;
16115;SDS011;8162;47.104;15.432;2023-09-19T03:54:14;2.33;;;1.80;;
16115;SDS011;8162;47.104;15.432;2023-09-19T03:57:17;2.70;;;1.53;;
16115;SDS011;8162;47.104;15.432;2023-09-19T04:00:20;2.90;;;1.77;;
16115;SDS011;8162;47.104;15.432;2023-09-19T04:03:24;5.77;;;2.07;;
16115;SDS011;8162;47.104;15.432;2023-09-19T04:06:34;3.23;;;1.93;;
16115;SDS011;8162;47.104;15.432;2023-09-19T04:09:36;3.63;;;1.90;;
16115;SDS011;8162;47.104;15.432;2023-09-19T04:12:37;4.00;;;1.93;;
16115;SDS011;8162;47.104;15.432;2023-09-19T04:15:38;1.90;;;1.73;;
16115;SDS011;8162;47.104;15.432;2023-09-19T04:18:40;2.23;;;1.93;;
16115;SDS011;8162;47.104;15.432;2023-09-19T04:21:41;1.90;;;1.70;;
16115;SDS011;8162;47.104;15.432;2023-09-19T04:24:42;3.93;;;1.60;;
16115;SDS011;8162;47.104;15.432;2023-09-19T04:27:44;2.10;;;1.50;;
16115;SDS011;8162;47.104;15.432;2023-09-19T04:30:46;3.20;;;2.07;;
16115;SDS011;8162;47.104;15.432;2023-09-19T04:33:48;2.57;;;2.07;;
16115;SDS011;8162;47.104;15.432;2023-09-19T04:36:49;3.23;;;2.17;;
16115;SDS011;8162;47.104;15.432;2023-09-19T04:39:50;2.80;;;2.10;;
16115;SDS011;8162;47.104;15.432;2023-09-19T04:42:54;3.90;;;2.80;;
16115;SDS011;8162;47.104;15.432;2023-09-19T04:45:58;4.03;;;2.80;;
16115;SDS011;8162;47.104;15.432;2023-09-19T04:49:00;4.67;;;3.03;;
16115;SDS011;8162;47.104;15.432;2023-09-19T04:52:02;3.83;;;3.00;;
16115;SDS011;8162;47.104;15.432;2023-09-19T04:55:03;3.13;;;2.50;;
16115;SDS011;8162;47.104;15.432;2023-09-19T04:58:04;8.10;;;3.40;;
16115;SDS011;8162;47.104;15.432;2023-09-19T05:01:05;4.83;;;3.20;;
16115;SDS011;8162;47.104;15.432;2023-09-19T05:04:11;3.80;;;2.87;;
16115;SDS011;8162;47.104;15.432;2023-09-19T05:07:13;2.77;;;2.53;;
16115;SDS011;8162;47.104;15.432;2023-09-19T05:10:14;3.00;;;2.33;;
16115;SDS011;8162;47.104;15.432;2023-09-19T05:13:18;3.57;;;2.30;;
16115;SDS011;8162;47.104;15.432;2023-09-19T05:16:19;3.87;;;2.30;;
16115;SDS011;8162;47.104;15.432;2023-09-19T05:19:21;3.23;;;2.40;;
16115;SDS011;8162;47.104;15.432;2023-09-19T05:22:22;3.73;;;2.40;;
16115;SDS011;8162;47.104;15.432;2023-09-19T05:25:24;4.20;;;2.30;;
16115;SDS011;8162;47.104;15.432;2023-09-19T05:28:25;3.73;;;2.17;;
16115;SDS011;8162;47.104;15.432;2023-09-19T05:31:26;4.67;;;2.10;;
16115;SDS011;8162;47.104;15.432;2023-09-19T05:34:27;2.70;;;2.23;;
16115;SDS011;8162;47.104;15.432;2023-09-19T05:37:30;2.77;;;2.03;;
16115;SDS011;8162;47.104;15.432;2023-09-19T05:40:31;3.03;;;1.80;;
16115;SDS011;8162;47.104;15.432;2023-09-19T05:43:32;4.30;;;2.23;;
16115;SDS011;8162;47.104;15.432;2023-09-19T05:46:34;4.53;;;2.60;;
16115;SDS011;8162;47.104;15.432;2023-09-19T05:49:35;3.80;;;2.20;;
16115;SDS011;8162;47.104;15.432;2023-09-19T05:52:39;4.73;;;1.90;;
16115;SDS011;8162;47.104;15.432;2023-09-19T05:55:41;3.23;;;2.00;;
16115;SDS011;8162;47.104;15.432;2023-09-19T05:58:42;7.87;;;2.20;;
16115;SDS011;8162;47.104;15.432;2023-09-19T06:01:44;3.40;;;2.03;;
16115;SDS011;8162;47.104;15.432;2023-09-19T06:04:47;2.87;;;2.00;;
16115;SDS011;8162;47.104;15.432;2023-09-19T06:07:48;3.43;;;2.07;;
16115;SDS011;8162;47.104;15.432;2023-09-19T06:10:49;2.97;;;2.10;;
16115;SDS011;8162;47.104;15.432;2023-09-19T06:13:52;2.20;;;1.90;;
16115;SDS011;8162;47.104;15.432;2023-09-19T06:16:53;2.67;;;1.93;;
16115;SDS011;8162;47.104;15.432;2023-09-19T06:19:54;2.93;;;1.70;;
16115;SDS011;8162;47.104;15.432;2023-09-19T06:22:56;3.30;;;1.93;;
16115;SDS011;8162;47.104;15.432;2023-09-19T06:25:57;2.23;;;1.80;;
16115;SDS011;8162;47.104;15.432;2023-09-19T06:28:58;3.00;;;1.57;;
16115;SDS011;8162;47.104;15.432;2023-09-19T06:31:59;4.10;;;1.77;;
16115;SDS011;8162;47.104;15.432;2023-09-19T06:35:01;1.73;;;1.30;;
16115;SDS011;8162;47.104;15.432;2023-09-19T06:38:03;1.90;;;1.60;;
16115;SDS011;8162;47.104;15.432;2023-09-19T06:41:05;3.60;;;1.40;;
16115;SDS011;8162;47.104;15.432;2023-09-19T06:44:08;2.73;;;1.77;;
16115;SDS011;8162;47.104;15.432;2023-09-19T06:47:09;2.27;;;2.00;;
16115;SDS011;8162;47.104;15.432;2023-09-19T06:50:10;4.03;;;2.30;;
16115;SDS011;8162;47.104;15.432;2023-09-19T06:53:14;4.33;;;2.03;;
16115;SDS011;8162;47.104;15.432;2023-09-19T06:56:16;2.73;;;1.93;;
16115;SDS011;8162;47.104;15.432;2023-09-19T06:59:17;4.40;;;2.20;;
16115;SDS011;8162;47.104;15.432;2023-09-19T07:02:18;5.80;;;3.17;;
16115;SDS011;8162;47.104;15.432;2023-09-19T07:05:19;4.23;;;3.00;;
16115;SDS011;8162;47.104;15.432;2023-09-19T07:08:21;4.17;;;2.60;;
16115;SDS011;8162;47.104;15.432;2023-09-19T07:11:22;4.60;;;3.67;;
16115;SDS011;8162;47.104;15.432;2023-09-19T07:14:24;5.47;;;3.73;;
16115;SDS011;8162;47.104;15.432;2023-09-19T07:17:25;5.70;;;3.20;;
16115;SDS011;8162;47.104;15.432;2023-09-19T07:20:26;5.30;;;2.50;;
16115;SDS011;8162;47.104;15.432;2023-09-19T07:23:32;4.07;;;3.20;;
16115;SDS011;8162;47.104;15.432;2023-09-19T07:26:34;5.70;;;2.70;;
16115;SDS011;8162;47.104;15.432;2023-09-19T07:29:36;3.43;;;2.30;;
16115;SDS011;8162;47.104;15.432;2023-09-19T07:32:38;3.70;;;2.30;;
16115;SDS011;8162;47.104;15.432;2023-09-19T07:35:44;3.30;;;2.40;;
16115;SDS011;8162;47.104;15.432;2023-09-19T07:38:46;3.97;;;2.60;;
16115;SDS011;8162;47.104;15.432;2023-09-19T07:41:48;4.90;;;2.07;;
16115;SDS011;8162;47.104;15.432;2023-09-19T07:44:49;3.30;;;2.33;;
16115;SDS011;8162;47.104;15.432;2023-09-19T07:47:51;3.10;;;2.20;;
16115;SDS011;8162;47.104;15.432;2023-09-19T07:50:52;3.20;;;2.00;;
16115;SDS011;8162;47.104;15.432;2023-09-19T07:53:53;3.10;;;2.17;;
16115;SDS011;8162;47.104;15.432;2023-09-19T07:56:55;3.93;;;2.40;;
16115;SDS011;8162;47.104;15.432;2023-09-19T07:59:56;2.03;;;1.83;;
16115;SDS011;8162;47.104;15.432;2023-09-19T08:02:57;2.37;;;2.00;;
16115;SDS011;8162;47.104;15.432;2023-09-19T08:05:58;2.00;;;1.80;;
16115;SDS011;8162;47.104;15.432;2023-09-19T08:08:59;3.50;;;2.17;;
16115;SDS011;8162;47.104;15.432;2023-09-19T08:12:00;4.20;;;2.87;;
16115;SDS011;8162;47.104;15.432;2023-09-19T08:15:04;7.40;;;2.20;;
16115;SDS011;8162;47.104;15.432;2023-09-19T08:18:06;4.57;;;2.00;;
16115;SDS011;8162;47.104;15.432;2023-09-19T08:21:07;2.67;;;2.07;;
16115;SDS011;8162;47.104;15.432;2023-09-19T08:24:11;5.03;;;2.17;;
16115;SDS011;8162;47.104;15.432;2023-09-19T08:27:12;2.30;;;2.10;;
16115;SDS011;8162;47.104;15.432;2023-09-19T08:30:20;2.17;;;1.93;;
16115;SDS011;8162;47.104;15.432;2023-09-19T08:33:24;4.60;;;1.90;;
16115;SDS011;8162;47.104;15.432;2023-09-19T08:36:25;2.37;;;2.17;;
16115;SDS011;8162;47.104;15.432;2023-09-19T08:39:26;2.70;;;2.00;;
16115;SDS011;8162;47.104;15.432;2023-09-19T08:42:27;3.97;;;1.90;;
16115;SDS011;8162;47.104;15.432;2023-09-19T08:45:28;4.07;;;2.17;;
16115;SDS011;8162;47.104;15.432;2023-09-19T08:48:32;2.83;;;2.17;;
16115;SDS011;8162;47.104;15.432;2023-09-19T08:54:37;2.13;;;2.00;;
16115;SDS011;8162;47.104;15.432;2023-09-19T08:57:39;3.20;;;2.00;;
16115;SDS011;8162;47.104;15.432;2023-09-19T09:00:43;3.90;;;2.17;;
16115;SDS011;8162;47.104;15.432;2023-09-19T09:03:46;2.40;;;1.97;;
16115;SDS011;8162;47.104;15.432;2023-09-19T09:06:48;2.50;;;2.10;;
16115;SDS011;8162;47.104;15.432;2023-09-19T09:09:53;2.20;;;2.00;;
16115;SDS011;8162;47.104;15.432;2023-09-19T09:12:54;2.57;;;2.37;;
16115;SDS011;8162;47.104;15.432;2023-09-19T09:15:55;3.00;;;2.30;;
16115;SDS011;8162;47.104;15.432;2023-09-19T09:18:56;3.97;;;2.10;;
16115;SDS011;8162;47.104;15.432;2023-09-19T09:22:07;5.07;;;2.33;;
16115;SDS011;8162;47.104;15.432;2023-09-19T09:25:08;4.23;;;2.10;;
16115;SDS011;8162;47.104;15.432;2023-09-19T09:28:09;4.40;;;2.27;;
16115;SDS011;8162;47.104;15.432;2023-09-19T09:31:23;2.33;;;2.13;;
16115;SDS011;8162;47.104;15.432;2023-09-19T09:34:32;3.73;;;2.30;;
16115;SDS011;8162;47.104;15.432;2023-09-19T09:37:33;3.00;;;2.57;;
16115;SDS011;8162;47.104;15.432;2023-09-19T09:40:48;3.63;;;2.60;;
16115;SDS011;8162;47.104;15.432;2023-09-19T09:43:53;3.93;;;2.67;;
16115;SDS011;8162;47.104;15.432;2023-09-19T09:46:54;4.13;;;2.80;;
16115;SDS011;8162;47.104;15.432;2023-09-19T09:50:25;3.73;;;2.67;;
16115;SDS011;8162;47.104;15.432;2023-09-19T09:53:38;2.37;;;2.17;;
16115;SDS011;8162;47.104;15.432;2023-09-19T09:56:55;6.97;;;2.53;;
16115;SDS011;8162;47.104;15.432;2023-09-19T10:00:01;4.67;;;3.03;;
16115;SDS011;8162;47.104;15.432;2023-09-19T10:03:33;5.33;;;2.70;;
16115;SDS011;8162;47.104;15.432;2023-09-19T10:06:51;4.97;;;2.70;;
16115;SDS011;8162;47.104;15.432;2023-09-19T10:09:54;3.90;;;2.50;;
16115;SDS011;8162;47.104;15.432;2023-09-19T10:13:05;4.13;;;2.83;;
16115;SDS011;8162;47.104;15.432;2023-09-19T10:16:08;3.77;;;2.80;;
16115;SDS011;8162;47.104;15.432;2023-09-19T10:19:11;2.97;;;2.23;;
16115;SDS011;8162;47.104;15.432;2023-09-19T10:22:24;4.60;;;2.33;;
16115;SDS011;8162;47.104;15.432;2023-09-19T10:25:27;4.57;;;2.27;;
16115;SDS011;8162;47.104;15.432;2023-09-19T10:28:31;4.77;;;3.03;;
16115;SDS011;8162;47.104;15.432;2023-09-19T10:31:33;2.97;;;2.67;;
16115;SDS011;8162;47.104;15.432;2023-09-19T10:34:39;2.93;;;2.63;;
16115;SDS011;8162;47.104;15.432;2023-09-19T10:37:43;3.63;;;2.70;;
16115;SDS011;8162;47.104;15.432;2023-09-19T10:40:51;5.67;;;2.43;;
16115;SDS011;8162;47.104;15.432;2023-09-19T10:43:54;3.97;;;2.20;;
16115;SDS011;8162;47.104;15.432;2023-09-19T10:46:57;3.40;;;2.80;;
16115;SDS011;8162;47.104;15.432;2023-09-19T10:49:58;4.73;;;2.33;;
16115;SDS011;8162;47.104;15.432;2023-09-19T10:52:59;2.67;;;2.27;;
16115;SDS011;8162;47.104;15.432;2023-09-19T10:56:04;3.63;;;2.13;;
16115;SDS011;8162;47.104;15.432;2023-09-19T10:59:14;3.27;;;2.33;;
16115;SDS011;8162;47.104;15.432;2023-09-19T11:02:18;2.70;;;2.10;;
16115;SDS011;8162;47.104;15.432;2023-09-19T11:05:19;2.47;;;1.97;;
16115;SDS011;8162;47.104;15.432;2023-09-19T11:08:20;2.57;;;2.00;;
16115;SDS011;8162;47.104;15.432;2023-09-19T11:14:40;2.77;;;1.77;;
16115;SDS011;8162;47.104;15.432;2023-09-19T11:17:42;3.57;;;1.87;;
16115;SDS011;8162;47.104;15.432;2023-09-19T11:20:47;3.90;;;1.90;;
16115;SDS011;8162;47.104;15.432;2023-09-19T11:27:12;1.60;;;1.50;;
16115;SDS011;8162;47.104;15.432;2023-09-19T11:30:26;2.60;;;1.70;;
16115;SDS011;8162;47.104;15.432;2023-09-19T11:33:30;1.70;;;1.60;;
16115;SDS011;8162;47.104;15.432;2023-09-19T11:36:38;1.83;;;1.60;;
16115;SDS011;8162;47.104;15.432;2023-09-19T11:42:59;2.43;;;1.67;;
16115;SDS011;8162;47.104;15.432;2023-09-19T11:46:20;3.53;;;1.60;;
16115;SDS011;8162;47.104;15.432;2023-09-19T11:49:29;3.77;;;1.70;;
16115;SDS011;8162;47.104;15.432;2023-09-19T11:52:31;4.30;;;1.60;;
16115;SDS011;8162;47.104;15.432;2023-09-19T11:55:37;3.53;;;1.80;;
16115;SDS011;8162;47.104;15.432;2023-09-19T11:58:38;1.73;;;1.47;;
16115;SDS011;8162;47.104;15.432;2023-09-19T12:01:42;2.30;;;1.50;;
16115;SDS011;8162;47.104;15.432;2023-09-19T12:04:53;2.03;;;1.37;;
16115;SDS011;8162;47.104;15.432;2023-09-19T12:07:54;4.50;;;1.53;;
16115;SDS011;8162;47.104;15.432;2023-09-19T12:10:55;4.60;;;1.43;;
16115;SDS011;8162;47.104;15.432;2023-09-19T12:13:56;4.00;;;1.40;;
16115;SDS011;8162;47.104;15.432;2023-09-19T12:17:00;2.03;;;1.20;;
16115;SDS011;8162;47.104;15.432;2023-09-19T12:20:03;2.63;;;1.43;;
16115;SDS011;8162;47.104;15.432;2023-09-19T12:23:13;3.17;;;1.30;;
16115;SDS011;8162;47.104;15.432;2023-09-19T12:26:15;2.60;;;1.33;;
16115;SDS011;8162;47.104;15.432;2023-09-19T12:29:17;1.27;;;1.17;;
16115;SDS011;8162;47.104;15.432;2023-09-19T12:32:19;2.03;;;1.37;;
16115;SDS011;8162;47.104;15.432;2023-09-19T12:35:34;4.03;;;1.65;;
16115;SDS011;8162;47.104;15.432;2023-09-19T12:38:35;1.98;;;1.40;;
16115;SDS011;8162;47.104;15.432;2023-09-19T12:41:37;1.50;;;1.20;;
16115;SDS011;8162;47.104;15.432;2023-09-19T12:44:40;3.17;;;1.17;;
16115;SDS011;8162;47.104;15.432;2023-09-19T12:54:05;2.63;;;1.40;;
16115;SDS011;8162;47.104;15.432;2023-09-19T12:57:06;3.63;;;1.40;;
16115;SDS011;8162;47.104;15.432;2023-09-19T13:00:07;3.57;;;1.30;;
16115;SDS011;8162;47.104;15.432;2023-09-19T13:03:11;1.87;;;1.20;;
16115;SDS011;8162;47.104;15.432;2023-09-19T13:06:35;2.40;;;1.60;;
16115;SDS011;8162;47.104;15.432;2023-09-19T13:09:40;2.50;;;1.50;;
16115;SDS011;8162;47.104;15.432;2023-09-19T13:12:41;3.00;;;1.40;;
16115;SDS011;8162;47.104;15.432;2023-09-19T13:15:51;2.97;;;1.27;;
16115;SDS011;8162;47.104;15.432;2023-09-19T13:18:53;2.57;;;1.73;;
16115;SDS011;8162;47.104;15.432;2023-09-19T13:21:56;2.10;;;1.40;;
16115;SDS011;8162;47.104;15.432;2023-09-19T13:24:57;1.70;;;1.37;;
16115;SDS011;8162;47.104;15.432;2023-09-19T13:27:59;3.23;;;1.40;;
16115;SDS011;8162;47.104;15.432;2023-09-19T13:31:00;2.80;;;1.30;;
16115;SDS011;8162;47.104;15.432;2023-09-19T13:34:02;1.43;;;1.20;;
16115;SDS011;8162;47.104;15.432;2023-09-19T13:37:03;4.23;;;1.40;;
16115;SDS011;8162;47.104;15.432;2023-09-19T13:40:05;2.40;;;1.30;;
16115;SDS011;8162;47.104;15.432;2023-09-19T13:43:06;1.80;;;1.23;;
16115;SDS011;8162;47.104;15.432;2023-09-19T13:46:07;2.88;;;1.70;;
16115;SDS011;8162;47.104;15.432;2023-09-19T13:49:12;3.17;;;1.20;;
16115;SDS011;8162;47.104;15.432;2023-09-19T13:52:12;1.65;;;1.25;;
16115;SDS011;8162;47.104;15.432;2023-09-19T13:55:13;2.15;;;1.23;;
16115;SDS011;8162;47.104;15.432;2023-09-19T13:58:16;3.13;;;1.65;;
16115;SDS011;8162;47.104;15.432;2023-09-19T14:01:18;3.55;;;1.40;;
16115;SDS011;8162;47.104;15.432;2023-09-19T14:04:19;1.47;;;1.20;;
16115;SDS011;8162;47.104;15.432;2023-09-19T14:07:22;1.80;;;1.50;;
16115;SDS011;8162;47.104;15.432;2023-09-19T14:10:23;2.00;;;1.50;;
16115;SDS011;8162;47.104;15.432;2023-09-19T14:13:24;11.10;;;2.33;;
16115;SDS011;8162;47.104;15.432;2023-09-19T14:16:25;2.50;;;2.10;;
16115;SDS011;8162;47.104;15.432;2023-09-19T14:19:30;14.13;;;2.97;;
16115;SDS011;8162;47.104;15.432;2023-09-19T14:22:32;34.17;;;7.90;;
16115;SDS011;8162;47.104;15.432;2023-09-19T14:25:34;24.50;;;5.97;;
16115;SDS011;8162;47.104;15.432;2023-09-19T14:28:36;4.13;;;2.93;;
16115;SDS011;8162;47.104;15.432;2023-09-19T14:31:38;8.03;;;2.20;;
16115;SDS011;8162;47.104;15.432;2023-09-19T14:34:40;15.70;;;3.67;;
16115;SDS011;8162;47.104;15.432;2023-09-19T14:37:42;6.33;;;2.00;;
16115;SDS011;8162;47.104;15.432;2023-09-19T14:40:45;2.80;;;2.17;;
16115;SDS011;8162;47.104;15.432;2023-09-19T14:43:46;2.13;;;1.93;;
16115;SDS011;8162;47.104;15.432;2023-09-19T14:46:47;2.80;;;2.10;;
16115;SDS011;8162;47.104;15.432;2023-09-19T14:49:48;2.10;;;1.80;;
16115;SDS011;8162;47.104;15.432;2023-09-19T14:52:49;3.47;;;1.73;;
16115;SDS011;8162;47.104;15.432;2023-09-19T14:55:51;3.17;;;1.70;;
16115;SDS011;8162;47.104;15.432;2023-09-19T14:58:53;3.40;;;1.80;;
16115;SDS011;8162;47.104;15.432;2023-09-19T15:01:54;3.23;;;1.80;;
16115;SDS011;8162;47.104;15.432;2023-09-19T15:04:55;5.03;;;1.90;;
16115;SDS011;8162;47.104;15.432;2023-09-19T15:07:56;3.93;;;1.73;;
16115;SDS011;8162;47.104;15.432;2023-09-19T15:10:58;3.93;;;1.90;;
16115;SDS011;8162;47.104;15.432;2023-09-19T15:14:03;3.17;;;1.70;;
16115;SDS011;8162;47.104;15.432;2023-09-19T15:17:04;5.87;;;1.70;;
16115;SDS011;8162;47.104;15.432;2023-09-19T15:20:06;3.20;;;1.80;;
16115;SDS011;8162;47.104;15.432;2023-09-19T15:23:07;3.97;;;1.80;;
16115;SDS011;8162;47.104;15.432;2023-09-19T15:26:10;3.80;;;1.80;;
16115;SDS011;8162;47.104;15.432;2023-09-19T15:29:12;4.03;;;1.70;;
16115;SDS011;8162;47.104;15.432;2023-09-19T15:32:13;4.27;;;2.10;;
16115;SDS011;8162;47.104;15.432;2023-09-19T15:35:14;1.93;;;1.80;;
16115;SDS011;8162;47.104;15.432;2023-09-19T15:38:17;1.90;;;1.80;;
16115;SDS011;8162;47.104;15.432;2023-09-19T15:41:18;1.87;;;1.77;;
16115;SDS011;8162;47.104;15.432;2023-09-19T15:44:20;4.47;;;1.90;;
16115;SDS011;8162;47.104;15.432;2023-09-19T15:47:21;5.97;;;2.70;;
16115;SDS011;8162;47.104;15.432;2023-09-19T15:50:22;2.90;;;2.50;;
16115;SDS011;8162;47.104;15.432;2023-09-19T15:53:23;4.10;;;2.40;;
16115;SDS011;8162;47.104;15.432;2023-09-19T15:56:24;2.20;;;1.73;;
16115;SDS011;8162;47.104;15.432;2023-09-19T15:59:26;4.17;;;2.00;;
16115;SDS011;8162;47.104;15.432;2023-09-19T16:02:30;4.07;;;1.87;;
16115;SDS011;8162;47.104;15.432;2023-09-19T16:05:35;4.47;;;1.87;;
16115;SDS011;8162;47.104;15.432;2023-09-19T16:08:43;2.10;;;1.80;;
16115;SDS011;8162;47.104;15.432;2023-09-19T16:11:45;2.73;;;1.90;;
16115;SDS011;8162;47.104;15.432;2023-09-19T16:14:46;3.50;;;2.23;;
16115;SDS011;8162;47.104;15.432;2023-09-19T16:17:49;2.37;;;2.17;;
16115;SDS011;8162;47.104;15.432;2023-09-19T16:20:50;3.53;;;1.80;;
16115;SDS011;8162;47.104;15.432;2023-09-19T16:23:52;2.77;;;1.93;;
16115;SDS011;8162;47.104;15.432;2023-09-19T16:26:54;2.33;;;1.90;;
16115;SDS011;8162;47.104;15.432;2023-09-19T16:29:55;2.50;;;2.30;;
16115;SDS011;8162;47.104;15.432;2023-09-19T16:32:58;3.90;;;2.30;;
16115;SDS011;8162;47.104;15.432;2023-09-19T16:35:59;2.07;;;1.87;;
16115;SDS011;8162;47.104;15.432;2023-09-19T16:39:01;2.90;;;1.97;;
16115;SDS011;8162;47.104;15.432;2023-09-19T16:42:03;2.07;;;1.80;;
16115;SDS011;8162;47.104;15.432;2023-09-19T16:45:05;3.30;;;2.07;;
16115;SDS011;8162;47.104;15.432;2023-09-19T16:48:06;2.00;;;1.87;;
16115;SDS011;8162;47.104;15.432;2023-09-19T16:51:09;2.27;;;2.00;;
16115;SDS011;8162;47.104;15.432;2023-09-19T16:54:11;4.83;;;1.90;;
16115;SDS011;8162;47.104;15.432;2023-09-19T16:57:12;2.40;;;1.80;;
16115;SDS011;8162;47.104;15.432;2023-09-19T17:00:15;4.40;;;2.40;;
16115;SDS011;8162;47.104;15.432;2023-09-19T17:03:17;2.63;;;2.20;;
16115;SDS011;8162;47.104;15.432;2023-09-19T17:06:19;5.13;;;2.63;;
16115;SDS011;8162;47.104;15.432;2023-09-19T17:09:22;3.73;;;1.90;;
16115;SDS011;8162;47.104;15.432;2023-09-19T17:12:23;2.27;;;2.07;;
16115;SDS011;8162;47.104;15.432;2023-09-19T17:15:24;3.83;;;2.47;;
16115;SDS011;8162;47.104;15.432;2023-09-19T17:18:26;3.17;;;2.20;;
16115;SDS011;8162;47.104;15.432;2023-09-19T17:21:28;4.43;;;2.20;;
16115;SDS011;8162;47.104;15.432;2023-09-19T17:24:29;2.23;;;2.03;;
16115;SDS011;8162;47.104;15.432;2023-09-19T17:27:31;4.00;;;2.73;;
16115;SDS011;8162;47.104;15.432;2023-09-19T17:30:33;3.77;;;2.37;;
16115;SDS011;8162;47.104;15.432;2023-09-19T17:33:39;2.53;;;2.17;;
16115;SDS011;8162;47.104;15.432;2023-09-19T17:36:41;3.53;;;2.40;;
16115;SDS011;8162;47.104;15.432;2023-09-19T17:39:42;3.07;;;2.43;;
16115;SDS011;8162;47.104;15.432;2023-09-19T17:42:44;3.23;;;2.10;;
16115;SDS011;8162;47.104;15.432;2023-09-19T17:45:45;3.33;;;2.30;;
16115;SDS011;8162;47.104;15.432;2023-09-19T17:48:47;4.20;;;2.40;;
16115;SDS011;8162;47.104;15.432;2023-09-19T17:51:49;4.63;;;2.30;;
16115;SDS011;8162;47.104;15.432;2023-09-19T17:54:51;5.83;;;2.83;;
16115;SDS011;8162;47.104;15.432;2023-09-19T17:57:52;5.73;;;2.53;;
16115;SDS011;8162;47.104;15.432;2023-09-19T18:00:55;4.70;;;2.60;;
16115;SDS011;8162;47.104;15.432;2023-09-19T18:03:56;4.10;;;2.80;;
16115;SDS011;8162;47.104;15.432;2023-09-19T18:06:59;3.23;;;2.40;;
16115;SDS011;8162;47.104;15.432;2023-09-19T18:10:01;4.00;;;3.00;;
16115;SDS011;8162;47.104;15.432;2023-09-19T18:13:07;4.87;;;2.93;;
16115;SDS011;8162;47.104;15.432;2023-09-19T18:16:09;3.27;;;2.70;;
16115;SDS011;8162;47.104;15.432;2023-09-19T18:19:11;6.63;;;3.10;;
16115;SDS011;8162;47.104;15.432;2023-09-19T18:22:14;5.03;;;2.87;;
16115;SDS011;8162;47.104;15.432;2023-09-19T18:25:16;7.27;;;3.47;;
16115;SDS011;8162;47.104;15.432;2023-09-19T18:28:17;4.73;;;2.97;;
16115;SDS011;8162;47.104;15.432;2023-09-19T18:31:20;2.43;;;2.17;;
16115;SDS011;8162;47.104;15.432;2023-09-19T18:34:22;4.23;;;2.70;;
16115;SDS011;8162;47.104;15.432;2023-09-19T18:37:23;5.10;;;2.90;;
16115;SDS011;8162;47.104;15.432;2023-09-19T18:40:26;3.70;;;2.30;;
16115;SDS011;8162;47.104;15.432;2023-09-19T18:43:29;3.37;;;2.40;;
16115;SDS011;8162;47.104;15.432;2023-09-19T18:46:31;5.17;;;2.30;;
16115;SDS011;8162;47.104;15.432;2023-09-19T18:49:33;5.03;;;2.60;;
16115;SDS011;8162;47.104;15.432;2023-09-19T18:52:35;3.43;;;2.80;;